Impacts METAR Board
IDs:

KCVG - Cincinnati Intl, KY, US

Updated at: 2100 UTC 20 Jun 2019
Potential Impact None Slight Moderate High
Time 20/09Z 20/10Z 20/11Z 20/12Z 20/13Z 20/14Z 20/15Z 20/16Z 20/17Z 20/18Z 20/19Z 20/20Z 20/21Z
Temp68 68 68 68 68 69 71 72 73 73 69 67 68
Dewpt66 66 65 65 65 66 67 66 65 63 61 60 61
Altim29.61 29.61 29.63 29.63 29.63 29.63 29.64 29.63 29.64 29.64 29.67 29.69 29.72
VIS7 6 6 5 2 2 2 8 9 10 10 10 10
CIG5 5 14 5 5 5 10 220 20 27 18 15 15
CoverOVCOVCOVCOVCOVCOVCOVCOVCOVCOVCOVCOVCOVC
FltCatIFRIFRMVFRIFRIFRIFRIFRVFRMVFRMVFRMVFRMVFRMVFR
WX--BRBRBRBRBRBR------------
WDir210220200210210200220220220260250260280
WSpd7 7 8 9 7 8 7 11 13 19 14 12 18
WGst-- -- -- -- -- -- -- -- 21 27 22 -- 26
Raw hourly METARs
KCVG 200852Z 21007KT 7SM OVC005 20/19 A2961 RMK AO2 SLP018 60000 T02000189 55009 $
KCVG 200952Z 22007KT 6SM BR OVC005 20/19 A2961 RMK AO2 SLP017 T02000189 $
KCVG 201052Z 20008KT 6SM BR SCT009 OVC014 20/18 A2963 RMK AO2 SLP025 T02000183 $
KCVG 201152Z 21009KT 5SM BR OVC005 20/18 A2963 RMK AO2 SLP024 60000 70103 T02000183 10206 20200 50005 $
KCVG 201256Z 21007KT 2SM BR OVC005 20/18 A2963 RMK AO2 SFC VIS 3 T02000183
KCVG 201352Z 20008KT 2SM BR OVC005 21/19 A2963 RMK AO2 SFC VIS 3 SLP024 T02060189
KCVG 201452Z 22007KT 2SM BR SCT005 BKN010 OVC019 22/19 A2964 RMK AO2 SFC VIS 5 SLP029 BKN V OVC T02170194 53005
KCVG 201552Z 22011KT 8SM FEW014 SCT018 OVC220 22/19 A2963 RMK AO2 SLP023 T02220189
KCVG 201652Z 22013G21KT 9SM BKN020 BKN032 OVC055 23/18 A2964 RMK AO2 SLP027 T02280183
KCVG 201752Z 26019G27KT 10SM FEW022 BKN027 OVC048 23/17 A2964 RMK AO2 PK WND 25027/1752 SLP027 BINOVC T02280172 10233 20200 55002
KCVG 201852Z 25014G22KT 10SM BKN018 OVC024 21/16 A2967 RMK AO2 PK WND 25030/1756 SLP039 T02060161
KCVG 201952Z 26012KT 10SM BKN015 OVC020 19/16 A2969 RMK AO2 PK WND 28029/1924 SLP047 T01940156
KCVG 202052Z 28018G26KT 10SM BKN015 OVC020 20/16 A2972 RMK AO2 PK WND 28026/2038 SLP055 T02000161 51026



Page loaded:  21:51 UTC  |   02:51 PM Pacific  |   03:51 PM Mountain  |   04:51 PM Central  |   05:51 PM Eastern

 

ADVISORIES

FORECASTS

FORECASTS

OBSERVATIONS

USER TOOLS

ABOUT US